sensor_id;sensor_type;location;lat;lon;timestamp;P1;durP1;ratioP1;P2;durP2;ratioP2
14892;SDS011;7538;53.626;9.906;2023-11-21T00:00:12;35.47;;;20.30;;
14892;SDS011;7538;53.626;9.906;2023-11-21T00:02:40;34.03;;;18.88;;
14892;SDS011;7538;53.626;9.906;2023-11-21T00:05:08;31.27;;;18.00;;
14892;SDS011;7538;53.626;9.906;2023-11-21T00:07:35;31.67;;;16.70;;
14892;SDS011;7538;53.626;9.906;2023-11-21T00:10:02;26.77;;;15.55;;
14892;SDS011;7538;53.626;9.906;2023-11-21T00:12:30;28.55;;;16.42;;
14892;SDS011;7538;53.626;9.906;2023-11-21T00:14:58;30.15;;;16.70;;
14892;SDS011;7538;53.626;9.906;2023-11-21T00:17:25;28.48;;;17.35;;
14892;SDS011;7538;53.626;9.906;2023-11-21T00:19:51;30.95;;;17.73;;
14892;SDS011;7538;53.626;9.906;2023-11-21T00:22:18;28.50;;;17.85;;
14892;SDS011;7538;53.626;9.906;2023-11-21T00:24:45;29.10;;;17.25;;
14892;SDS011;7538;53.626;9.906;2023-11-21T00:27:13;27.92;;;18.02;;
14892;SDS011;7538;53.626;9.906;2023-11-21T00:29:40;28.65;;;19.05;;
14892;SDS011;7538;53.626;9.906;2023-11-21T00:32:08;29.35;;;17.45;;
14892;SDS011;7538;53.626;9.906;2023-11-21T00:34:35;27.73;;;17.98;;
14892;SDS011;7538;53.626;9.906;2023-11-21T00:37:02;33.55;;;19.00;;
14892;SDS011;7538;53.626;9.906;2023-11-21T00:39:28;29.90;;;18.35;;
14892;SDS011;7538;53.626;9.906;2023-11-21T00:41:55;31.63;;;19.15;;
14892;SDS011;7538;53.626;9.906;2023-11-21T00:44:22;25.52;;;17.20;;
14892;SDS011;7538;53.626;9.906;2023-11-21T00:46:49;29.50;;;17.85;;
14892;SDS011;7538;53.626;9.906;2023-11-21T00:49:17;32.22;;;18.83;;
14892;SDS011;7538;53.626;9.906;2023-11-21T00:51:44;29.83;;;17.55;;
14892;SDS011;7538;53.626;9.906;2023-11-21T00:54:11;30.38;;;19.08;;
14892;SDS011;7538;53.626;9.906;2023-11-21T00:56:38;33.25;;;18.65;;
14892;SDS011;7538;53.626;9.906;2023-11-21T00:59:06;29.30;;;17.95;;
14892;SDS011;7538;53.626;9.906;2023-11-21T01:01:32;27.58;;;17.55;;
14892;SDS011;7538;53.626;9.906;2023-11-21T01:03:59;33.67;;;18.23;;
14892;SDS011;7538;53.626;9.906;2023-11-21T01:06:29;27.27;;;17.63;;
14892;SDS011;7538;53.626;9.906;2023-11-21T01:08:56;31.25;;;19.75;;
14892;SDS011;7538;53.626;9.906;2023-11-21T01:11:22;32.95;;;20.30;;
14892;SDS011;7538;53.626;9.906;2023-11-21T01:13:49;33.70;;;19.13;;
14892;SDS011;7538;53.626;9.906;2023-11-21T01:16:16;33.75;;;20.52;;
14892;SDS011;7538;53.626;9.906;2023-11-21T01:18:43;32.70;;;20.08;;
14892;SDS011;7538;53.626;9.906;2023-11-21T01:21:10;37.40;;;20.80;;
14892;SDS011;7538;53.626;9.906;2023-11-21T01:23:38;34.88;;;20.45;;
14892;SDS011;7538;53.626;9.906;2023-11-21T01:26:05;31.65;;;19.25;;
14892;SDS011;7538;53.626;9.906;2023-11-21T01:28:34;27.45;;;17.48;;
14892;SDS011;7538;53.626;9.906;2023-11-21T01:31:01;24.65;;;16.45;;
14892;SDS011;7538;53.626;9.906;2023-11-21T01:33:27;24.80;;;16.15;;
14892;SDS011;7538;53.626;9.906;2023-11-21T01:35:54;20.73;;;14.07;;
14892;SDS011;7538;53.626;9.906;2023-11-21T01:38:21;21.67;;;14.80;;
14892;SDS011;7538;53.626;9.906;2023-11-21T01:40:49;22.40;;;14.77;;
14892;SDS011;7538;53.626;9.906;2023-11-21T01:43:16;25.17;;;15.05;;
14892;SDS011;7538;53.626;9.906;2023-11-21T01:45:43;19.08;;;13.82;;
14892;SDS011;7538;53.626;9.906;2023-11-21T01:48:11;21.65;;;14.95;;
14892;SDS011;7538;53.626;9.906;2023-11-21T01:50:38;22.10;;;15.68;;
14892;SDS011;7538;53.626;9.906;2023-11-21T01:53:05;21.77;;;15.60;;
14892;SDS011;7538;53.626;9.906;2023-11-21T01:55:32;24.33;;;15.30;;
14892;SDS011;7538;53.626;9.906;2023-11-21T01:58:01;24.02;;;15.38;;
14892;SDS011;7538;53.626;9.906;2023-11-21T02:00:28;21.75;;;14.27;;
14892;SDS011;7538;53.626;9.906;2023-11-21T02:02:56;22.00;;;15.32;;
14892;SDS011;7538;53.626;9.906;2023-11-21T02:05:23;20.13;;;13.43;;
14892;SDS011;7538;53.626;9.906;2023-11-21T02:07:51;21.45;;;13.95;;
14892;SDS011;7538;53.626;9.906;2023-11-21T02:10:18;21.13;;;14.35;;
14892;SDS011;7538;53.626;9.906;2023-11-21T02:12:48;19.63;;;13.40;;
14892;SDS011;7538;53.626;9.906;2023-11-21T02:15:16;16.55;;;10.93;;
14892;SDS011;7538;53.626;9.906;2023-11-21T02:17:45;15.52;;;10.98;;
14892;SDS011;7538;53.626;9.906;2023-11-21T02:20:16;12.90;;;9.65;;
14892;SDS011;7538;53.626;9.906;2023-11-21T02:22:48;12.63;;;9.52;;
14892;SDS011;7538;53.626;9.906;2023-11-21T02:25:17;11.82;;;9.27;;
14892;SDS011;7538;53.626;9.906;2023-11-21T02:27:44;12.65;;;9.40;;
14892;SDS011;7538;53.626;9.906;2023-11-21T02:30:13;15.32;;;9.55;;
14892;SDS011;7538;53.626;9.906;2023-11-21T02:32:41;10.95;;;8.50;;
14892;SDS011;7538;53.626;9.906;2023-11-21T02:35:08;9.95;;;7.60;;
14892;SDS011;7538;53.626;9.906;2023-11-21T02:37:37;10.95;;;8.15;;
14892;SDS011;7538;53.626;9.906;2023-11-21T02:40:06;11.23;;;8.05;;
14892;SDS011;7538;53.626;9.906;2023-11-21T02:42:35;10.43;;;7.10;;
14892;SDS011;7538;53.626;9.906;2023-11-21T02:45:02;9.68;;;7.80;;
14892;SDS011;7538;53.626;9.906;2023-11-21T02:47:30;11.52;;;7.93;;
14892;SDS011;7538;53.626;9.906;2023-11-21T02:49:57;10.07;;;7.57;;
14892;SDS011;7538;53.626;9.906;2023-11-21T02:52:24;8.88;;;7.97;;
14892;SDS011;7538;53.626;9.906;2023-11-21T02:54:50;9.52;;;7.18;;
14892;SDS011;7538;53.626;9.906;2023-11-21T02:57:19;9.80;;;7.63;;
14892;SDS011;7538;53.626;9.906;2023-11-21T02:59:46;10.68;;;7.80;;
14892;SDS011;7538;53.626;9.906;2023-11-21T03:02:12;10.80;;;8.10;;
14892;SDS011;7538;53.626;9.906;2023-11-21T03:04:40;11.35;;;7.00;;
14892;SDS011;7538;53.626;9.906;2023-11-21T03:07:08;11.23;;;7.38;;
14892;SDS011;7538;53.626;9.906;2023-11-21T03:09:35;13.75;;;7.70;;
14892;SDS011;7538;53.626;9.906;2023-11-21T03:12:02;11.88;;;8.63;;
14892;SDS011;7538;53.626;9.906;2023-11-21T03:14:31;11.57;;;8.77;;
14892;SDS011;7538;53.626;9.906;2023-11-21T03:16:58;12.63;;;8.20;;
14892;SDS011;7538;53.626;9.906;2023-11-21T03:19:25;11.95;;;8.15;;
14892;SDS011;7538;53.626;9.906;2023-11-21T03:21:52;12.27;;;9.10;;
14892;SDS011;7538;53.626;9.906;2023-11-21T03:24:19;11.20;;;9.35;;
14892;SDS011;7538;53.626;9.906;2023-11-21T03:26:47;13.68;;;9.50;;
14892;SDS011;7538;53.626;9.906;2023-11-21T03:29:15;13.97;;;9.37;;
14892;SDS011;7538;53.626;9.906;2023-11-21T03:31:43;13.68;;;8.82;;
14892;SDS011;7538;53.626;9.906;2023-11-21T03:34:14;13.90;;;9.43;;
14892;SDS011;7538;53.626;9.906;2023-11-21T03:36:42;12.13;;;9.05;;
14892;SDS011;7538;53.626;9.906;2023-11-21T03:39:09;12.13;;;8.30;;
14892;SDS011;7538;53.626;9.906;2023-11-21T03:41:36;12.23;;;9.10;;
14892;SDS011;7538;53.626;9.906;2023-11-21T03:44:03;13.63;;;9.63;;
14892;SDS011;7538;53.626;9.906;2023-11-21T03:46:30;10.43;;;8.30;;
14892;SDS011;7538;53.626;9.906;2023-11-21T03:48:58;12.48;;;8.98;;
14892;SDS011;7538;53.626;9.906;2023-11-21T03:51:25;11.63;;;8.20;;
14892;SDS011;7538;53.626;9.906;2023-11-21T03:53:52;10.65;;;8.82;;
14892;SDS011;7538;53.626;9.906;2023-11-21T03:56:18;10.60;;;9.10;;
14892;SDS011;7538;53.626;9.906;2023-11-21T03:58:46;11.20;;;8.65;;
14892;SDS011;7538;53.626;9.906;2023-11-21T04:01:18;11.45;;;8.85;;
14892;SDS011;7538;53.626;9.906;2023-11-21T04:03:46;12.90;;;9.43;;
14892;SDS011;7538;53.626;9.906;2023-11-21T04:06:15;10.93;;;8.82;;
14892;SDS011;7538;53.626;9.906;2023-11-21T04:08:42;11.75;;;8.70;;
14892;SDS011;7538;53.626;9.906;2023-11-21T04:11:09;11.43;;;9.05;;
14892;SDS011;7538;53.626;9.906;2023-11-21T04:13:36;13.75;;;9.38;;
14892;SDS011;7538;53.626;9.906;2023-11-21T04:16:04;13.55;;;9.85;;
14892;SDS011;7538;53.626;9.906;2023-11-21T04:18:32;14.30;;;9.70;;
14892;SDS011;7538;53.626;9.906;2023-11-21T04:20:59;14.02;;;9.73;;
14892;SDS011;7538;53.626;9.906;2023-11-21T04:23:28;13.05;;;9.82;;
14892;SDS011;7538;53.626;9.906;2023-11-21T04:25:55;11.30;;;9.55;;
14892;SDS011;7538;53.626;9.906;2023-11-21T04:28:22;12.23;;;10.00;;
14892;SDS011;7538;53.626;9.906;2023-11-21T04:30:49;13.50;;;10.00;;
14892;SDS011;7538;53.626;9.906;2023-11-21T04:33:16;12.55;;;9.27;;
14892;SDS011;7538;53.626;9.906;2023-11-21T04:35:43;13.90;;;10.30;;
14892;SDS011;7538;53.626;9.906;2023-11-21T04:38:10;12.48;;;9.65;;
14892;SDS011;7538;53.626;9.906;2023-11-21T04:40:38;12.23;;;10.25;;
14892;SDS011;7538;53.626;9.906;2023-11-21T04:43:05;12.18;;;9.98;;
14892;SDS011;7538;53.626;9.906;2023-11-21T04:45:32;11.45;;;9.20;;
14892;SDS011;7538;53.626;9.906;2023-11-21T04:47:59;11.60;;;9.68;;
14892;SDS011;7538;53.626;9.906;2023-11-21T04:50:25;12.82;;;9.85;;
14892;SDS011;7538;53.626;9.906;2023-11-21T04:52:52;11.07;;;9.07;;
14892;SDS011;7538;53.626;9.906;2023-11-21T04:55:19;13.25;;;10.02;;
14892;SDS011;7538;53.626;9.906;2023-11-21T04:57:47;13.80;;;9.77;;
14892;SDS011;7538;53.626;9.906;2023-11-21T05:00:14;11.60;;;9.65;;
14892;SDS011;7538;53.626;9.906;2023-11-21T05:02:41;11.60;;;9.63;;
14892;SDS011;7538;53.626;9.906;2023-11-21T05:05:09;12.75;;;10.15;;
14892;SDS011;7538;53.626;9.906;2023-11-21T05:07:36;12.45;;;9.88;;
14892;SDS011;7538;53.626;9.906;2023-11-21T05:10:03;12.52;;;8.82;;
14892;SDS011;7538;53.626;9.906;2023-11-21T05:12:35;11.50;;;9.52;;
14892;SDS011;7538;53.626;9.906;2023-11-21T05:15:05;10.35;;;8.85;;
14892;SDS011;7538;53.626;9.906;2023-11-21T05:17:34;11.48;;;9.13;;
14892;SDS011;7538;53.626;9.906;2023-11-21T05:20:02;12.15;;;8.48;;
14892;SDS011;7538;53.626;9.906;2023-11-21T05:22:33;12.52;;;9.65;;
14892;SDS011;7538;53.626;9.906;2023-11-21T05:25:00;10.70;;;9.02;;
14892;SDS011;7538;53.626;9.906;2023-11-21T05:27:28;10.43;;;8.27;;
14892;SDS011;7538;53.626;9.906;2023-11-21T05:29:54;12.98;;;9.55;;
14892;SDS011;7538;53.626;9.906;2023-11-21T05:32:23;12.48;;;9.23;;
14892;SDS011;7538;53.626;9.906;2023-11-21T05:34:50;11.00;;;9.13;;
14892;SDS011;7538;53.626;9.906;2023-11-21T05:37:16;11.82;;;9.02;;
14892;SDS011;7538;53.626;9.906;2023-11-21T05:39:43;11.98;;;9.40;;
14892;SDS011;7538;53.626;9.906;2023-11-21T05:42:10;10.93;;;8.75;;
14892;SDS011;7538;53.626;9.906;2023-11-21T05:44:37;11.32;;;9.55;;
14892;SDS011;7538;53.626;9.906;2023-11-21T05:47:08;11.35;;;9.05;;
14892;SDS011;7538;53.626;9.906;2023-11-21T05:49:36;9.90;;;8.60;;
14892;SDS011;7538;53.626;9.906;2023-11-21T05:52:03;10.55;;;8.18;;
14892;SDS011;7538;53.626;9.906;2023-11-21T05:54:30;10.35;;;8.80;;
14892;SDS011;7538;53.626;9.906;2023-11-21T05:56:57;12.30;;;9.03;;
14892;SDS011;7538;53.626;9.906;2023-11-21T05:59:25;11.13;;;8.88;;
14892;SDS011;7538;53.626;9.906;2023-11-21T06:01:51;11.90;;;9.27;;
14892;SDS011;7538;53.626;9.906;2023-11-21T06:04:18;11.85;;;9.18;;
14892;SDS011;7538;53.626;9.906;2023-11-21T06:06:50;10.82;;;9.15;;
14892;SDS011;7538;53.626;9.906;2023-11-21T06:09:17;9.63;;;8.47;;
14892;SDS011;7538;53.626;9.906;2023-11-21T06:11:44;10.93;;;8.60;;
14892;SDS011;7538;53.626;9.906;2023-11-21T06:14:11;10.27;;;8.70;;
14892;SDS011;7538;53.626;9.906;2023-11-21T06:16:38;10.43;;;8.40;;
14892;SDS011;7538;53.626;9.906;2023-11-21T06:19:05;10.18;;;8.50;;
14892;SDS011;7538;53.626;9.906;2023-11-21T06:21:32;9.45;;;8.02;;
14892;SDS011;7538;53.626;9.906;2023-11-21T06:24:01;9.98;;;8.48;;
14892;SDS011;7538;53.626;9.906;2023-11-21T06:26:28;10.65;;;9.30;;
14892;SDS011;7538;53.626;9.906;2023-11-21T06:28:56;9.55;;;8.35;;
14892;SDS011;7538;53.626;9.906;2023-11-21T06:31:23;12.02;;;9.50;;
14892;SDS011;7538;53.626;9.906;2023-11-21T06:33:50;10.23;;;8.63;;
14892;SDS011;7538;53.626;9.906;2023-11-21T06:36:17;10.45;;;9.32;;
14892;SDS011;7538;53.626;9.906;2023-11-21T06:38:44;10.60;;;8.95;;
14892;SDS011;7538;53.626;9.906;2023-11-21T06:41:13;11.88;;;8.35;;
14892;SDS011;7538;53.626;9.906;2023-11-21T06:43:40;13.63;;;10.03;;
14892;SDS011;7538;53.626;9.906;2023-11-21T06:46:11;10.45;;;8.82;;
14892;SDS011;7538;53.626;9.906;2023-11-21T06:48:39;10.57;;;8.23;;
14892;SDS011;7538;53.626;9.906;2023-11-21T06:51:08;11.77;;;9.07;;
14892;SDS011;7538;53.626;9.906;2023-11-21T06:53:35;10.70;;;9.02;;
14892;SDS011;7538;53.626;9.906;2023-11-21T06:56:02;10.30;;;8.48;;
14892;SDS011;7538;53.626;9.906;2023-11-21T06:58:32;12.07;;;9.02;;
14892;SDS011;7538;53.626;9.906;2023-11-21T07:01:00;12.60;;;8.32;;
14892;SDS011;7538;53.626;9.906;2023-11-21T07:03:26;11.77;;;8.50;;
14892;SDS011;7538;53.626;9.906;2023-11-21T07:05:53;11.27;;;8.48;;
14892;SDS011;7538;53.626;9.906;2023-11-21T07:08:20;9.57;;;8.55;;
14892;SDS011;7538;53.626;9.906;2023-11-21T07:10:47;9.82;;;8.50;;
14892;SDS011;7538;53.626;9.906;2023-11-21T07:13:14;9.13;;;8.05;;
14892;SDS011;7538;53.626;9.906;2023-11-21T07:15:42;10.90;;;8.27;;
14892;SDS011;7538;53.626;9.906;2023-11-21T07:18:09;10.23;;;8.65;;
14892;SDS011;7538;53.626;9.906;2023-11-21T07:20:36;10.18;;;8.52;;
14892;SDS011;7538;53.626;9.906;2023-11-21T07:23:03;11.20;;;8.32;;
14892;SDS011;7538;53.626;9.906;2023-11-21T07:25:30;10.05;;;8.38;;
14892;SDS011;7538;53.626;9.906;2023-11-21T07:27:58;10.35;;;8.10;;
14892;SDS011;7538;53.626;9.906;2023-11-21T07:30:25;10.23;;;7.55;;
14892;SDS011;7538;53.626;9.906;2023-11-21T07:32:53;9.95;;;8.35;;
14892;SDS011;7538;53.626;9.906;2023-11-21T07:35:20;10.20;;;8.30;;
14892;SDS011;7538;53.626;9.906;2023-11-21T07:37:47;10.25;;;7.65;;
14892;SDS011;7538;53.626;9.906;2023-11-21T07:40:14;8.23;;;7.32;;
14892;SDS011;7538;53.626;9.906;2023-11-21T07:42:42;9.73;;;7.50;;
14892;SDS011;7538;53.626;9.906;2023-11-21T07:45:09;8.68;;;7.78;;
14892;SDS011;7538;53.626;9.906;2023-11-21T07:47:36;11.43;;;8.57;;
14892;SDS011;7538;53.626;9.906;2023-11-21T07:50:06;8.45;;;7.40;;
14892;SDS011;7538;53.626;9.906;2023-11-21T07:52:33;9.35;;;7.68;;
14892;SDS011;7538;53.626;9.906;2023-11-21T07:55:00;9.40;;;7.90;;
14892;SDS011;7538;53.626;9.906;2023-11-21T07:57:28;10.02;;;8.32;;
14892;SDS011;7538;53.626;9.906;2023-11-21T07:59:55;9.32;;;7.57;;
14892;SDS011;7538;53.626;9.906;2023-11-21T08:02:22;10.40;;;8.02;;
14892;SDS011;7538;53.626;9.906;2023-11-21T08:04:49;10.70;;;8.73;;
14892;SDS011;7538;53.626;9.906;2023-11-21T08:07:18;9.65;;;8.18;;
14892;SDS011;7538;53.626;9.906;2023-11-21T08:09:45;9.70;;;8.32;;
14892;SDS011;7538;53.626;9.906;2023-11-21T08:12:14;9.63;;;8.02;;
14892;SDS011;7538;53.626;9.906;2023-11-21T08:14:41;10.97;;;8.73;;
14892;SDS011;7538;53.626;9.906;2023-11-21T08:17:09;10.52;;;8.10;;
14892;SDS011;7538;53.626;9.906;2023-11-21T08:19:36;9.30;;;7.88;;
14892;SDS011;7538;53.626;9.906;2023-11-21T08:22:03;10.15;;;8.70;;
14892;SDS011;7538;53.626;9.906;2023-11-21T08:24:34;10.05;;;8.32;;
14892;SDS011;7538;53.626;9.906;2023-11-21T08:27:00;11.75;;;8.68;;
14892;SDS011;7538;53.626;9.906;2023-11-21T08:29:29;8.82;;;7.55;;
14892;SDS011;7538;53.626;9.906;2023-11-21T08:31:56;10.48;;;8.98;;
14892;SDS011;7538;53.626;9.906;2023-11-21T08:34:23;8.55;;;7.63;;
14892;SDS011;7538;53.626;9.906;2023-11-21T08:36:50;10.98;;;8.02;;
14892;SDS011;7538;53.626;9.906;2023-11-21T08:39:16;8.38;;;7.10;;
14892;SDS011;7538;53.626;9.906;2023-11-21T08:41:45;9.13;;;7.78;;
14892;SDS011;7538;53.626;9.906;2023-11-21T08:44:13;8.90;;;6.50;;
14892;SDS011;7538;53.626;9.906;2023-11-21T08:46:41;8.05;;;6.95;;
14892;SDS011;7538;53.626;9.906;2023-11-21T08:49:10;8.02;;;7.00;;
14892;SDS011;7538;53.626;9.906;2023-11-21T08:51:37;10.70;;;7.25;;
14892;SDS011;7538;53.626;9.906;2023-11-21T08:54:04;7.67;;;6.27;;
14892;SDS011;7538;53.626;9.906;2023-11-21T08:56:33;8.73;;;6.47;;
14892;SDS011;7538;53.626;9.906;2023-11-21T08:59:01;9.13;;;7.20;;
14892;SDS011;7538;53.626;9.906;2023-11-21T09:01:28;7.97;;;6.60;;
14892;SDS011;7538;53.626;9.906;2023-11-21T09:03:56;6.03;;;5.27;;
14892;SDS011;7538;53.626;9.906;2023-11-21T09:06:23;5.40;;;4.78;;
14892;SDS011;7538;53.626;9.906;2023-11-21T09:08:50;3.85;;;3.40;;
14892;SDS011;7538;53.626;9.906;2023-11-21T09:11:17;5.75;;;3.83;;
14892;SDS011;7538;53.626;9.906;2023-11-21T09:13:44;3.58;;;3.08;;
14892;SDS011;7538;53.626;9.906;2023-11-21T09:16:13;4.83;;;3.20;;
14892;SDS011;7538;53.626;9.906;2023-11-21T09:18:40;4.32;;;2.95;;
14892;SDS011;7538;53.626;9.906;2023-11-21T09:21:07;3.97;;;3.22;;
14892;SDS011;7538;53.626;9.906;2023-11-21T09:23:35;6.17;;;3.50;;
14892;SDS011;7538;53.626;9.906;2023-11-21T09:26:02;3.83;;;3.42;;
14892;SDS011;7538;53.626;9.906;2023-11-21T09:28:30;4.20;;;3.77;;
14892;SDS011;7538;53.626;9.906;2023-11-21T09:30:57;5.07;;;3.33;;
14892;SDS011;7538;53.626;9.906;2023-11-21T09:33:25;3.60;;;3.13;;
14892;SDS011;7538;53.626;9.906;2023-11-21T09:35:52;3.97;;;3.08;;
14892;SDS011;7538;53.626;9.906;2023-11-21T09:38:19;5.45;;;3.03;;
14892;SDS011;7538;53.626;9.906;2023-11-21T09:40:46;4.95;;;3.65;;
14892;SDS011;7538;53.626;9.906;2023-11-21T09:43:15;3.63;;;3.25;;
14892;SDS011;7538;53.626;9.906;2023-11-21T09:45:44;4.78;;;3.03;;
14892;SDS011;7538;53.626;9.906;2023-11-21T09:48:14;5.03;;;3.25;;
14892;SDS011;7538;53.626;9.906;2023-11-21T09:50:43;4.25;;;2.88;;
14892;SDS011;7538;53.626;9.906;2023-11-21T09:53:13;3.72;;;3.42;;
14892;SDS011;7538;53.626;9.906;2023-11-21T09:55:57;3.80;;;3.47;;
14892;SDS011;7538;53.626;9.906;2023-11-21T09:58:27;4.63;;;3.38;;
14892;SDS011;7538;53.626;9.906;2023-11-21T10:00:55;4.40;;;3.90;;
14892;SDS011;7538;53.626;9.906;2023-11-21T10:03:23;4.93;;;4.43;;
14892;SDS011;7538;53.626;9.906;2023-11-21T10:05:51;4.35;;;3.35;;
14892;SDS011;7538;53.626;9.906;2023-11-21T10:08:20;4.50;;;3.88;;
14892;SDS011;7538;53.626;9.906;2023-11-21T10:10:53;6.65;;;3.70;;
14892;SDS011;7538;53.626;9.906;2023-11-21T10:13:20;5.03;;;3.83;;
14892;SDS011;7538;53.626;9.906;2023-11-21T10:15:49;5.47;;;3.60;;
14892;SDS011;7538;53.626;9.906;2023-11-21T10:18:17;3.60;;;3.22;;
14892;SDS011;7538;53.626;9.906;2023-11-21T10:20:45;3.67;;;3.38;;
14892;SDS011;7538;53.626;9.906;2023-11-21T10:23:18;3.35;;;3.05;;
14892;SDS011;7538;53.626;9.906;2023-11-21T10:25:46;4.70;;;3.10;;
14892;SDS011;7538;53.626;9.906;2023-11-21T10:28:13;2.85;;;2.60;;
14892;SDS011;7538;53.626;9.906;2023-11-21T10:30:42;3.40;;;3.10;;
14892;SDS011;7538;53.626;9.906;2023-11-21T10:33:09;3.20;;;2.90;;
14892;SDS011;7538;53.626;9.906;2023-11-21T10:35:39;3.10;;;2.60;;
14892;SDS011;7538;53.626;9.906;2023-11-21T10:38:13;3.10;;;2.78;;
14892;SDS011;7538;53.626;9.906;2023-11-21T10:40:43;4.00;;;2.60;;
14892;SDS011;7538;53.626;9.906;2023-11-21T10:43:11;3.58;;;3.28;;
14892;SDS011;7538;53.626;9.906;2023-11-21T10:45:40;2.60;;;2.40;;
14892;SDS011;7538;53.626;9.906;2023-11-21T10:48:07;2.70;;;2.50;;
14892;SDS011;7538;53.626;9.906;2023-11-21T10:50:35;2.95;;;2.20;;
14892;SDS011;7538;53.626;9.906;2023-11-21T10:53:03;2.90;;;2.40;;
14892;SDS011;7538;53.626;9.906;2023-11-21T10:55:31;4.68;;;2.53;;
14892;SDS011;7538;53.626;9.906;2023-11-21T10:58:00;2.90;;;2.60;;
14892;SDS011;7538;53.626;9.906;2023-11-21T11:00:30;3.35;;;2.42;;
14892;SDS011;7538;53.626;9.906;2023-11-21T11:02:58;3.05;;;2.70;;
14892;SDS011;7538;53.626;9.906;2023-11-21T11:05:27;2.42;;;2.22;;
14892;SDS011;7538;53.626;9.906;2023-11-21T11:07:56;2.95;;;2.65;;
14892;SDS011;7538;53.626;9.906;2023-11-21T11:10:26;3.70;;;2.83;;
14892;SDS011;7538;53.626;9.906;2023-11-21T11:12:54;3.40;;;3.10;;
14892;SDS011;7538;53.626;9.906;2023-11-21T11:15:23;3.28;;;2.90;;
14892;SDS011;7538;53.626;9.906;2023-11-21T11:17:51;3.67;;;3.35;;
14892;SDS011;7538;53.626;9.906;2023-11-21T11:20:22;4.00;;;3.40;;
14892;SDS011;7538;53.626;9.906;2023-11-21T11:22:50;4.57;;;3.17;;
14892;SDS011;7538;53.626;9.906;2023-11-21T11:25:35;4.50;;;3.40;;
14892;SDS011;7538;53.626;9.906;2023-11-21T11:28:17;4.50;;;3.05;;
14892;SDS011;7538;53.626;9.906;2023-11-21T11:30:50;3.20;;;2.90;;
14892;SDS011;7538;53.626;9.906;2023-11-21T11:33:31;2.90;;;2.55;;
14892;SDS011;7538;53.626;9.906;2023-11-21T11:36:04;3.70;;;2.92;;
14892;SDS011;7538;53.626;9.906;2023-11-21T11:38:36;3.67;;;2.60;;
14892;SDS011;7538;53.626;9.906;2023-11-21T11:41:04;3.03;;;2.70;;
14892;SDS011;7538;53.626;9.906;2023-11-21T11:43:31;2.75;;;2.55;;
14892;SDS011;7538;53.626;9.906;2023-11-21T11:46:09;4.00;;;3.00;;
14892;SDS011;7538;53.626;9.906;2023-11-21T11:48:38;6.95;;;3.50;;
14892;SDS011;7538;53.626;9.906;2023-11-21T11:51:06;3.47;;;2.90;;
14892;SDS011;7538;53.626;9.906;2023-11-21T11:53:37;3.28;;;2.63;;
14892;SDS011;7538;53.626;9.906;2023-11-21T11:56:22;3.67;;;3.30;;
14892;SDS011;7538;53.626;9.906;2023-11-21T11:58:52;3.47;;;3.17;;
14892;SDS011;7538;53.626;9.906;2023-11-21T12:01:23;3.42;;;3.13;;
14892;SDS011;7538;53.626;9.906;2023-11-21T12:06:55;3.65;;;2.72;;
14892;SDS011;7538;53.626;9.906;2023-11-21T12:09:24;3.22;;;2.35;;
14892;SDS011;7538;53.626;9.906;2023-11-21T12:11:51;3.95;;;2.80;;
14892;SDS011;7538;53.626;9.906;2023-11-21T12:14:19;2.97;;;2.55;;
14892;SDS011;7538;53.626;9.906;2023-11-21T12:16:48;3.70;;;2.75;;
14892;SDS011;7538;53.626;9.906;2023-11-21T12:19:16;4.28;;;3.40;;
14892;SDS011;7538;53.626;9.906;2023-11-21T12:21:43;3.67;;;2.95;;
14892;SDS011;7538;53.626;9.906;2023-11-21T12:24:10;4.32;;;2.88;;
14892;SDS011;7538;53.626;9.906;2023-11-21T12:26:38;3.50;;;2.83;;
14892;SDS011;7538;53.626;9.906;2023-11-21T12:29:05;5.30;;;2.85;;
14892;SDS011;7538;53.626;9.906;2023-11-21T12:31:33;2.47;;;2.22;;
14892;SDS011;7538;53.626;9.906;2023-11-21T12:34:02;3.78;;;2.58;;
14892;SDS011;7538;53.626;9.906;2023-11-21T12:36:31;3.75;;;2.95;;
14892;SDS011;7538;53.626;9.906;2023-11-21T12:38:59;3.27;;;2.97;;
14892;SDS011;7538;53.626;9.906;2023-11-21T12:41:27;2.67;;;2.47;;
14892;SDS011;7538;53.626;9.906;2023-11-21T12:43:55;3.53;;;2.72;;
14892;SDS011;7538;53.626;9.906;2023-11-21T12:46:24;4.50;;;3.00;;
14892;SDS011;7538;53.626;9.906;2023-11-21T12:48:54;3.50;;;2.92;;
14892;SDS011;7538;53.626;9.906;2023-11-21T12:51:25;3.65;;;2.95;;
14892;SDS011;7538;53.626;9.906;2023-11-21T12:53:51;3.05;;;2.72;;
14892;SDS011;7538;53.626;9.906;2023-11-21T12:56:19;3.70;;;2.83;;
14892;SDS011;7538;53.626;9.906;2023-11-21T12:58:49;3.25;;;2.92;;
14892;SDS011;7538;53.626;9.906;2023-11-21T13:01:16;2.60;;;2.40;;
14892;SDS011;7538;53.626;9.906;2023-11-21T13:03:46;3.42;;;2.95;;
14892;SDS011;7538;53.626;9.906;2023-11-21T13:06:15;3.17;;;2.72;;
14892;SDS011;7538;53.626;9.906;2023-11-21T13:08:45;5.07;;;3.08;;
14892;SDS011;7538;53.626;9.906;2023-11-21T13:11:13;3.95;;;3.22;;
14892;SDS011;7538;53.626;9.906;2023-11-21T13:13:41;4.20;;;3.10;;
14892;SDS011;7538;53.626;9.906;2023-11-21T13:16:09;3.20;;;2.53;;
14892;SDS011;7538;53.626;9.906;2023-11-21T13:18:36;5.45;;;3.22;;
14892;SDS011;7538;53.626;9.906;2023-11-21T13:21:05;3.00;;;2.63;;
14892;SDS011;7538;53.626;9.906;2023-11-21T13:23:37;2.97;;;2.65;;
14892;SDS011;7538;53.626;9.906;2023-11-21T13:26:07;3.40;;;3.10;;
14892;SDS011;7538;53.626;9.906;2023-11-21T13:28:34;3.83;;;2.90;;
14892;SDS011;7538;53.626;9.906;2023-11-21T13:31:02;3.60;;;2.70;;
14892;SDS011;7538;53.626;9.906;2023-11-21T13:33:34;3.60;;;2.90;;
14892;SDS011;7538;53.626;9.906;2023-11-21T13:36:03;3.47;;;3.13;;
14892;SDS011;7538;53.626;9.906;2023-11-21T13:38:33;3.40;;;3.10;;
14892;SDS011;7538;53.626;9.906;2023-11-21T13:41:01;3.97;;;2.77;;
14892;SDS011;7538;53.626;9.906;2023-11-21T13:43:33;4.13;;;3.17;;
14892;SDS011;7538;53.626;9.906;2023-11-21T13:46:02;3.17;;;2.60;;
14892;SDS011;7538;53.626;9.906;2023-11-21T13:48:40;2.70;;;2.50;;
14892;SDS011;7538;53.626;9.906;2023-11-21T13:51:08;3.83;;;2.83;;
14892;SDS011;7538;53.626;9.906;2023-11-21T13:53:42;3.75;;;3.25;;
14892;SDS011;7538;53.626;9.906;2023-11-21T13:56:10;3.67;;;3.28;;
14892;SDS011;7538;53.626;9.906;2023-11-21T13:58:42;4.13;;;3.03;;
14892;SDS011;7538;53.626;9.906;2023-11-21T14:01:15;3.20;;;2.90;;
14892;SDS011;7538;53.626;9.906;2023-11-21T14:04:06;3.63;;;3.30;;
14892;SDS011;7538;53.626;9.906;2023-11-21T14:06:44;3.00;;;2.70;;
14892;SDS011;7538;53.626;9.906;2023-11-21T14:09:13;3.47;;;3.13;;
14892;SDS011;7538;53.626;9.906;2023-11-21T14:11:47;3.42;;;3.13;;
14892;SDS011;7538;53.626;9.906;2023-11-21T14:14:16;4.43;;;3.00;;
14892;SDS011;7538;53.626;9.906;2023-11-21T14:16:43;3.50;;;3.20;;
14892;SDS011;7538;53.626;9.906;2023-11-21T14:19:10;4.72;;;3.67;;
14892;SDS011;7538;53.626;9.906;2023-11-21T14:21:40;4.38;;;3.47;;
14892;SDS011;7538;53.626;9.906;2023-11-21T14:24:09;4.00;;;3.45;;
14892;SDS011;7538;53.626;9.906;2023-11-21T14:26:37;4.55;;;3.20;;
14892;SDS011;7538;53.626;9.906;2023-11-21T14:29:05;5.10;;;3.72;;
14892;SDS011;7538;53.626;9.906;2023-11-21T14:31:34;4.53;;;3.33;;
14892;SDS011;7538;53.626;9.906;2023-11-21T14:34:02;4.45;;;3.25;;
14892;SDS011;7538;53.626;9.906;2023-11-21T14:36:31;5.57;;;3.50;;
14892;SDS011;7538;53.626;9.906;2023-11-21T14:38:58;2.77;;;2.50;;
14892;SDS011;7538;53.626;9.906;2023-11-21T14:41:27;4.60;;;3.30;;
14892;SDS011;7538;53.626;9.906;2023-11-21T14:43:55;4.65;;;3.05;;
14892;SDS011;7538;53.626;9.906;2023-11-21T14:46:22;3.10;;;2.55;;
14892;SDS011;7538;53.626;9.906;2023-11-21T14:48:52;3.03;;;2.50;;
14892;SDS011;7538;53.626;9.906;2023-11-21T14:51:38;4.10;;;2.80;;
14892;SDS011;7538;53.626;9.906;2023-11-21T14:54:24;3.95;;;2.88;;
14892;SDS011;7538;53.626;9.906;2023-11-21T14:57:04;4.43;;;2.70;;
14892;SDS011;7538;53.626;9.906;2023-11-21T14:59:34;4.73;;;2.80;;
14892;SDS011;7538;53.626;9.906;2023-11-21T15:02:01;4.67;;;3.07;;